createdAt,value
2023-05-21T00:02:24.974Z,158.98
2023-05-21T00:04:53.323Z,123.25
2023-05-21T00:07:21.531Z,174.82
2023-05-21T00:09:50.058Z,208.27
2023-05-21T00:12:18.261Z,160.35
2023-05-21T00:14:46.755Z,131.32
2023-05-21T00:17:16.377Z,116.70
2023-05-21T00:19:44.783Z,111.20
2023-05-21T00:22:14.282Z,107.35
2023-05-21T00:24:42.991Z,102.32
2023-05-21T00:27:11.345Z,94.78
2023-05-21T00:29:39.689Z,93.63
2023-05-21T00:32:08.906Z,91.93
2023-05-21T00:34:38.842Z,86.85
2023-05-21T00:37:09.909Z,80.13
2023-05-21T00:39:38.468Z,77.80
2023-05-21T00:42:06.936Z,67.05
2023-05-21T00:44:35.427Z,56.05
2023-05-21T00:47:04.126Z,52.00
2023-05-21T00:49:33.371Z,53.20
2023-05-21T00:52:03.096Z,52.40
2023-05-21T00:54:32.112Z,39.88
2023-05-21T00:57:01.157Z,39.65
2023-05-21T00:59:29.821Z,33.38
2023-05-21T01:02:04.387Z,30.88
2023-05-21T01:04:33.488Z,25.77
2023-05-21T01:07:03.083Z,25.38
2023-05-21T01:09:31.475Z,30.98
2023-05-21T01:12:00.998Z,26.60
2023-05-21T01:14:29.570Z,22.88
2023-05-21T01:16:58.112Z,23.02
2023-05-21T01:19:26.761Z,19.65
2023-05-21T01:22:01.571Z,20.17
2023-05-21T01:24:31.614Z,23.58
2023-05-21T01:27:00.479Z,22.40
2023-05-21T01:29:28.758Z,21.15
2023-05-21T01:32:04.169Z,18.50
2023-05-21T01:34:53.598Z,21.67
2023-05-21T01:37:27.814Z,20.25
2023-05-21T01:40:01.141Z,19.35
2023-05-21T01:42:31.306Z,16.45
2023-05-21T01:45:02.872Z,16.85
2023-05-21T01:47:33.152Z,14.93
2023-05-21T01:50:02.090Z,14.85
2023-05-21T01:52:30.501Z,12.35
2023-05-21T01:55:00.350Z,11.63
2023-05-21T01:57:28.810Z,11.50
2023-05-21T01:59:58.854Z,11.20
2023-05-21T02:02:27.195Z,10.80
2023-05-21T02:04:55.454Z,9.77
2023-05-21T02:07:24.648Z,10.57
2023-05-21T02:09:52.893Z,10.60
2023-05-21T02:12:22.566Z,9.77
2023-05-21T02:14:51.036Z,10.88
2023-05-21T02:17:19.359Z,9.85
2023-05-21T02:19:47.635Z,10.02
2023-05-21T02:22:16.061Z,9.65
2023-05-21T02:24:44.261Z,8.75
2023-05-21T02:27:13.678Z,9.13
2023-05-21T02:29:43.403Z,8.32
2023-05-21T02:32:11.897Z,8.02
2023-05-21T02:34:42.446Z,8.35
2023-05-21T02:37:13.666Z,9.05
2023-05-21T02:39:41.910Z,8.52
2023-05-21T02:42:10.122Z,8.13
2023-05-21T02:44:38.443Z,8.68
2023-05-21T02:47:10.346Z,8.32
2023-05-21T02:49:39.507Z,9.45
2023-05-21T02:52:08.171Z,8.95
2023-05-21T02:54:36.519Z,8.77
2023-05-21T02:57:05.228Z,7.80
2023-05-21T02:59:33.472Z,8.02
2023-05-21T03:02:02.324Z,8.88
2023-05-21T03:04:33.185Z,8.32
2023-05-21T03:07:02.187Z,8.17
2023-05-21T03:09:30.560Z,8.85
2023-05-21T03:11:59.638Z,8.60
2023-05-21T03:14:29.020Z,9.25
2023-05-21T03:16:58.464Z,8.15
2023-05-21T03:19:27.168Z,7.97
2023-05-21T03:21:56.959Z,8.75
2023-05-21T03:24:25.247Z,8.38
2023-05-21T03:26:54.588Z,8.93
2023-05-21T03:29:23.315Z,8.10
2023-05-21T03:31:53.926Z,8.20
2023-05-21T03:34:22.574Z,7.78
2023-05-21T03:36:52.663Z,7.88
2023-05-21T03:39:24.699Z,8.30
2023-05-21T03:41:53.186Z,8.70
2023-05-21T03:44:32.340Z,8.48
2023-05-21T03:47:21.099Z,7.50
2023-05-21T03:49:50.532Z,8.43
2023-05-21T03:52:18.780Z,8.15
2023-05-21T03:54:48.699Z,8.02
2023-05-21T03:57:17.077Z,7.60
2023-05-21T03:59:47.206Z,8.32
2023-05-21T04:02:16.421Z,7.65
2023-05-21T04:04:45.540Z,7.88
2023-05-21T04:07:15.581Z,8.13
2023-05-21T04:09:43.991Z,7.63
2023-05-21T04:12:13.584Z,8.00
2023-05-21T04:14:42.284Z,8.23
2023-05-21T04:17:12.727Z,7.70
2023-05-21T04:19:42.052Z,7.68
2023-05-21T04:22:12.044Z,7.70
2023-05-21T04:24:40.794Z,8.30
2023-05-21T04:27:16.785Z,8.07
2023-05-21T04:29:46.088Z,7.35
2023-05-21T04:32:15.304Z,8.32
2023-05-21T04:34:43.675Z,7.25
2023-05-21T04:37:12.118Z,8.50
2023-05-21T04:39:41.104Z,7.78
2023-05-21T04:42:10.930Z,7.88
2023-05-21T04:44:41.388Z,8.18
2023-05-21T04:47:12.411Z,7.53
2023-05-21T04:49:41.193Z,8.05
2023-05-21T04:52:09.453Z,7.72
2023-05-21T04:54:39.123Z,8.15
2023-05-21T04:57:07.882Z,7.97
2023-05-21T04:59:36.490Z,7.75
2023-05-21T05:02:06.611Z,7.38
2023-05-21T05:04:35.046Z,8.25
2023-05-21T05:07:03.711Z,8.23
2023-05-21T05:09:32.229Z,8.13
2023-05-21T05:12:00.538Z,7.55
2023-05-21T05:14:29.060Z,7.30
2023-05-21T05:17:00.884Z,7.93
2023-05-21T05:19:32.116Z,8.38
2023-05-21T05:22:00.750Z,8.32
2023-05-21T05:24:29.018Z,7.57
2023-05-21T05:26:58.087Z,7.72
2023-05-21T05:29:26.414Z,7.68
2023-05-21T05:31:54.924Z,7.88
2023-05-21T05:34:23.285Z,7.85
2023-05-21T05:36:53.110Z,8.00
2023-05-21T05:39:21.479Z,7.72
2023-05-21T05:41:49.946Z,7.50
2023-05-21T05:44:18.373Z,8.10
2023-05-21T05:46:46.899Z,8.48
2023-05-21T05:49:15.203Z,7.80
2023-05-21T05:51:43.757Z,8.00
2023-05-21T05:54:13.570Z,8.32
2023-05-21T05:56:42.456Z,7.70
2023-05-21T05:59:10.835Z,7.90
2023-05-21T06:01:42.446Z,8.15
2023-05-21T06:04:10.953Z,8.75
2023-05-21T06:06:39.230Z,8.27
2023-05-21T06:09:07.523Z,8.23
2023-05-21T06:11:37.418Z,8.00
2023-05-21T06:14:06.003Z,7.95
2023-05-21T06:16:35.058Z,7.25
2023-05-21T06:19:04.346Z,8.25
2023-05-21T06:21:32.625Z,7.72
2023-05-21T06:24:01.385Z,7.50
2023-05-21T06:26:30.788Z,8.27
2023-05-21T06:29:01.411Z,8.05
2023-05-21T06:31:33.129Z,8.40
2023-05-21T06:34:02.056Z,8.10
2023-05-21T06:36:32.495Z,8.00
2023-05-21T06:39:01.135Z,8.85
2023-05-21T06:41:29.508Z,7.60
2023-05-21T06:44:01.993Z,8.20
2023-05-21T06:46:53.613Z,7.65
2023-05-21T06:49:22.031Z,7.78
2023-05-21T06:51:50.487Z,8.27
2023-05-21T06:54:18.805Z,7.68
2023-05-21T06:56:47.115Z,8.05
2023-05-21T06:59:18.272Z,7.90
2023-05-21T07:01:46.846Z,7.50
2023-05-21T07:04:15.073Z,8.48
2023-05-21T07:06:45.242Z,8.15
2023-05-21T07:09:13.612Z,8.27
2023-05-21T07:11:41.974Z,8.23
2023-05-21T07:14:11.606Z,7.70
2023-05-21T07:16:41.628Z,8.10
2023-05-21T07:19:10.325Z,7.80
2023-05-21T07:21:39.089Z,7.82
2023-05-21T07:24:09.116Z,7.82
2023-05-21T07:26:40.473Z,7.90
2023-05-21T07:29:08.992Z,8.00
2023-05-21T07:31:37.614Z,7.90
2023-05-21T07:34:08.346Z,7.75
2023-05-21T07:36:37.026Z,7.65
2023-05-21T07:39:05.652Z,7.65
2023-05-21T07:41:34.258Z,7.90
2023-05-21T07:44:06.655Z,7.95
2023-05-21T07:46:39.311Z,8.02
2023-05-21T07:49:10.792Z,8.30
2023-05-21T07:51:39.111Z,8.10
2023-05-21T07:54:07.479Z,7.32
2023-05-21T07:56:37.437Z,7.63
2023-05-21T07:59:07.968Z,8.10
2023-05-21T08:01:38.495Z,8.02
2023-05-21T08:04:08.364Z,8.07
2023-05-21T08:06:40.011Z,8.65
2023-05-21T08:09:08.455Z,7.57
2023-05-21T08:11:37.226Z,7.35
2023-05-21T08:14:05.796Z,7.80
2023-05-21T08:16:34.230Z,8.05
2023-05-21T08:19:02.745Z,7.65
2023-05-21T08:21:34.130Z,7.75
2023-05-21T08:24:03.103Z,7.20
2023-05-21T08:26:31.413Z,7.32
2023-05-21T08:28:59.771Z,7.22
2023-05-21T08:31:28.267Z,7.97
2023-05-21T08:33:57.706Z,7.72
2023-05-21T08:36:39.382Z,8.05
2023-05-21T08:39:18.281Z,8.38
2023-05-21T08:41:49.857Z,7.97
2023-05-21T08:44:22.649Z,7.32
2023-05-21T08:46:52.307Z,7.90
2023-05-21T08:49:26.364Z,7.35
2023-05-21T08:51:59.133Z,7.65
2023-05-21T08:54:28.090Z,7.88
2023-05-21T08:56:59.333Z,7.63
2023-05-21T08:59:28.290Z,7.80
2023-05-21T09:01:58.387Z,7.63
2023-05-21T09:04:34.015Z,7.57
2023-05-21T09:07:04.504Z,7.90
2023-05-21T09:09:57.489Z,7.63
2023-05-21T09:12:27.029Z,7.78
2023-05-21T09:14:57.985Z,8.10
2023-05-21T09:17:31.180Z,7.60
2023-05-21T09:20:16.577Z,7.72
2023-05-21T09:22:52.898Z,7.53
2023-05-21T09:25:24.558Z,7.55
2023-05-21T09:30:24.806Z,7.70
2023-05-21T09:32:57.766Z,7.32
2023-05-21T09:35:26.404Z,7.70
2023-05-21T09:37:57.615Z,7.90
2023-05-21T09:40:26.350Z,7.72
2023-05-21T09:42:55.845Z,7.90
2023-05-21T09:45:25.997Z,7.78
2023-05-21T09:47:57.735Z,8.10
2023-05-21T09:50:27.921Z,8.13
2023-05-21T09:52:58.526Z,7.22
2023-05-21T09:55:27.783Z,7.90
2023-05-21T09:57:56.205Z,7.15
2023-05-21T10:00:27.474Z,7.63
2023-05-21T10:02:57.335Z,8.15
2023-05-21T10:05:28.034Z,8.45
2023-05-21T10:08:02.059Z,8.17
2023-05-21T10:10:31.506Z,8.23
2023-05-21T10:13:02.185Z,8.00
2023-05-21T10:15:33.239Z,7.70
2023-05-21T10:18:02.869Z,8.02
2023-05-21T10:20:31.398Z,7.43
2023-05-21T10:23:02.164Z,7.90
2023-05-21T10:25:31.969Z,8.23
2023-05-21T10:28:00.252Z,8.30
2023-05-21T10:30:29.220Z,8.30
2023-05-21T10:32:58.157Z,8.10
2023-05-21T10:35:27.024Z,7.80
2023-05-21T10:37:58.048Z,8.30
2023-05-21T10:40:28.567Z,8.32
2023-05-21T10:43:19.601Z,7.43
2023-05-21T10:46:08.732Z,8.17
2023-05-21T10:48:50.089Z,8.00
2023-05-21T10:51:23.215Z,8.20
2023-05-21T10:54:33.472Z,8.00
2023-05-21T10:57:11.783Z,8.30
2023-05-21T10:59:44.204Z,8.13
2023-05-21T11:02:15.323Z,7.57
2023-05-21T11:04:48.971Z,7.78
2023-05-21T11:07:24.572Z,8.40
2023-05-21T11:09:52.962Z,7.90
2023-05-21T11:12:23.690Z,8.60
2023-05-21T11:14:58.641Z,8.23
2023-05-21T11:17:40.770Z,8.00
2023-05-21T11:20:11.769Z,8.15
2023-05-21T11:22:39.998Z,8.13
2023-05-21T11:25:08.932Z,8.23
2023-05-21T11:27:39.791Z,8.02
2023-05-21T11:30:09.605Z,8.73
2023-05-21T11:32:41.468Z,8.20
2023-05-21T11:35:10.029Z,7.80
2023-05-21T11:37:41.719Z,8.73
2023-05-21T11:40:27.455Z,8.35
2023-05-21T11:42:57.782Z,8.88
2023-05-21T11:45:30.925Z,8.00
2023-05-21T11:47:59.546Z,8.15
2023-05-21T11:50:30.644Z,8.60
2023-05-21T11:53:00.861Z,8.27
2023-05-21T11:55:29.284Z,8.13
2023-05-21T11:58:00.271Z,8.38
2023-05-21T12:00:28.734Z,7.88
2023-05-21T12:02:57.434Z,7.80
2023-05-21T12:05:27.148Z,8.00
2023-05-21T12:07:56.548Z,7.10
2023-05-21T12:10:24.995Z,8.15
2023-05-21T12:12:56.973Z,8.02
2023-05-21T12:15:28.085Z,7.57
2023-05-21T12:17:57.860Z,8.15
2023-05-21T12:20:29.044Z,8.32
2023-05-21T12:23:00.001Z,8.00
2023-05-21T12:25:29.866Z,8.00
2023-05-21T12:27:58.966Z,8.35
2023-05-21T12:30:29.910Z,8.15
2023-05-21T12:33:00.474Z,8.53
2023-05-21T12:35:32.609Z,8.25
2023-05-21T12:38:03.376Z,7.78
2023-05-21T12:40:40.108Z,7.97
2023-05-21T12:43:08.752Z,7.93
2023-05-21T12:45:40.640Z,7.82
2023-05-21T12:48:09.313Z,7.60
2023-05-21T12:50:41.598Z,7.88
2023-05-21T12:53:11.741Z,8.25
2023-05-21T12:55:40.532Z,8.27
2023-05-21T12:58:09.631Z,8.55
2023-05-21T13:00:39.649Z,7.50
2023-05-21T13:03:08.662Z,8.38
2023-05-21T13:05:36.942Z,8.10
2023-05-21T13:08:05.553Z,7.53
2023-05-21T13:10:33.918Z,7.35
2023-05-21T13:13:02.205Z,7.97
2023-05-21T13:15:30.471Z,7.93
2023-05-21T13:18:01.359Z,7.85
2023-05-21T13:20:30.173Z,7.88
2023-05-21T13:22:58.773Z,7.82
2023-05-21T13:25:29.589Z,7.45
2023-05-21T13:27:58.480Z,8.02
2023-05-21T13:30:26.777Z,8.10
2023-05-21T13:32:55.757Z,7.90
2023-05-21T13:35:25.733Z,8.35
2023-05-21T13:37:54.029Z,7.55
2023-05-21T13:40:23.297Z,8.10
2023-05-21T13:42:51.881Z,8.30
2023-05-21T13:45:21.588Z,7.93
2023-05-21T13:47:50.291Z,8.52
2023-05-21T13:50:18.719Z,9.07
2023-05-21T13:52:48.440Z,8.52
2023-05-21T13:55:16.931Z,8.65
2023-05-21T13:57:45.988Z,7.85
2023-05-21T14:00:16.209Z,8.27
2023-05-21T14:02:45.606Z,8.45
2023-05-21T14:05:14.569Z,8.00
2023-05-21T14:07:43.005Z,8.43
2023-05-21T14:10:12.870Z,7.72
2023-05-21T14:12:42.166Z,7.80
2023-05-21T14:15:12.013Z,7.88
2023-05-21T14:17:42.459Z,7.78
2023-05-21T14:20:11.966Z,8.15
2023-05-21T14:22:40.407Z,7.60
2023-05-21T14:25:09.294Z,8.10
2023-05-21T14:27:39.511Z,8.52
2023-05-21T14:30:09.113Z,8.35
2023-05-21T14:32:37.422Z,7.47
2023-05-21T14:35:06.892Z,7.93
2023-05-21T14:37:35.202Z,8.25
2023-05-21T14:40:05.376Z,8.02
2023-05-21T14:42:33.608Z,7.60
2023-05-21T14:45:17.448Z,7.82
2023-05-21T14:47:47.860Z,8.38
2023-05-21T14:50:17.697Z,7.70
2023-05-21T14:52:46.044Z,7.75
2023-05-21T14:55:16.644Z,8.52
2023-05-21T14:57:45.232Z,8.18
2023-05-21T15:00:16.124Z,8.43
2023-05-21T15:02:44.769Z,7.47
2023-05-21T15:05:13.216Z,7.90
2023-05-21T15:07:41.491Z,8.45
2023-05-21T15:10:10.992Z,7.72
2023-05-21T15:12:39.410Z,8.75
2023-05-21T15:15:08.722Z,8.90
2023-05-21T15:17:38.487Z,10.07
2023-05-21T15:20:07.922Z,9.35
2023-05-21T15:22:36.436Z,10.43
2023-05-21T15:25:05.744Z,9.52
2023-05-21T15:27:34.425Z,10.25
2023-05-21T15:30:03.038Z,10.20
2023-05-21T15:32:31.945Z,10.90
2023-05-21T15:35:01.755Z,11.32
2023-05-21T15:37:32.254Z,11.85
2023-05-21T15:40:00.764Z,12.05
2023-05-21T15:42:31.338Z,11.90
2023-05-21T15:44:59.784Z,11.50
2023-05-21T15:47:28.013Z,12.68
2023-05-21T15:49:56.512Z,11.55
2023-05-21T15:52:26.090Z,11.10
2023-05-21T15:54:54.794Z,10.23
2023-05-21T15:57:23.082Z,10.45
2023-05-21T15:59:52.732Z,10.80
2023-05-21T16:02:21.099Z,10.80
2023-05-21T16:04:51.774Z,9.50
2023-05-21T16:07:21.012Z,9.57
2023-05-21T16:09:50.719Z,9.82
2023-05-21T16:12:19.797Z,10.05
2023-05-21T16:14:49.900Z,9.52
2023-05-21T16:17:18.289Z,9.02
2023-05-21T16:19:47.475Z,9.50
2023-05-21T16:22:16.166Z,9.05
2023-05-21T16:24:44.460Z,9.52
2023-05-21T16:27:14.221Z,8.75
2023-05-21T16:29:42.792Z,8.60
2023-05-21T16:32:12.997Z,8.50
2023-05-21T16:34:41.623Z,8.27
2023-05-21T16:37:10.161Z,8.50
2023-05-21T16:39:38.376Z,8.30
2023-05-21T16:42:07.039Z,7.78
2023-05-21T16:44:37.856Z,7.82
2023-05-21T16:47:06.519Z,7.78
2023-05-21T16:49:34.788Z,7.72
2023-05-21T16:52:03.327Z,8.50
2023-05-21T16:54:31.648Z,7.95
2023-05-21T16:56:59.943Z,8.02
2023-05-21T16:59:28.271Z,7.75
2023-05-21T17:01:58.112Z,7.88
2023-05-21T17:04:26.577Z,7.90
2023-05-21T17:06:54.754Z,6.95
2023-05-21T17:09:23.091Z,8.15
2023-05-21T17:11:51.297Z,8.18
2023-05-21T17:14:32.601Z,7.80
2023-05-21T17:17:03.484Z,7.55
2023-05-21T17:19:31.927Z,7.78
2023-05-21T17:22:00.372Z,8.00
2023-05-21T17:24:28.627Z,7.75
2023-05-21T17:26:56.977Z,7.28
2023-05-21T17:29:25.198Z,7.43
2023-05-21T17:31:53.611Z,7.95
2023-05-21T17:34:26.302Z,7.13
2023-05-21T17:36:55.376Z,8.30
2023-05-21T17:39:23.908Z,7.43
2023-05-21T17:41:52.546Z,7.43
2023-05-21T17:44:21.636Z,7.72
2023-05-21T17:46:50.891Z,7.80
2023-05-21T17:49:19.957Z,6.70
2023-05-21T17:51:49.964Z,7.35
2023-05-21T17:54:18.221Z,7.32
2023-05-21T17:56:46.687Z,7.20
2023-05-21T17:59:16.095Z,7.60
2023-05-21T18:01:44.328Z,7.30
2023-05-21T18:04:13.292Z,7.30
2023-05-21T18:06:41.627Z,7.28
2023-05-21T18:09:14.288Z,6.97
2023-05-21T18:11:44.341Z,7.53
2023-05-21T18:14:12.621Z,7.38
2023-05-21T18:16:41.193Z,7.43
2023-05-21T18:19:09.628Z,7.13
2023-05-21T18:21:38.787Z,6.72
2023-05-21T18:24:07.948Z,7.60
2023-05-21T18:26:37.765Z,7.18
2023-05-21T18:29:06.088Z,7.20
2023-05-21T18:31:34.489Z,6.85
2023-05-21T18:34:03.259Z,6.43
2023-05-21T18:36:38.440Z,7.20
2023-05-21T18:39:07.683Z,7.47
2023-05-21T18:41:37.468Z,7.28
2023-05-21T18:44:06.981Z,7.22
2023-05-21T18:46:35.303Z,7.25
2023-05-21T18:49:03.622Z,7.47
2023-05-21T18:51:32.062Z,7.53
2023-05-21T18:54:00.536Z,7.65
2023-05-21T18:56:28.810Z,7.18
2023-05-21T18:58:58.516Z,7.43
2023-05-21T19:01:26.845Z,8.18
2023-05-21T19:03:55.128Z,8.00
2023-05-21T19:06:25.467Z,8.27
2023-05-21T19:08:53.786Z,7.70
2023-05-21T19:11:23.564Z,7.70
2023-05-21T19:13:52.084Z,8.00
2023-05-21T19:16:21.748Z,7.78
2023-05-21T19:18:50.156Z,8.35
2023-05-21T19:21:18.688Z,8.25
2023-05-21T19:23:53.211Z,8.90
2023-05-21T19:26:23.414Z,8.35
2023-05-21T19:28:53.799Z,8.75
2023-05-21T19:31:25.208Z,8.45
2023-05-21T19:33:53.987Z,8.48
2023-05-21T19:36:22.980Z,8.77
2023-05-21T19:38:52.106Z,92.97
2023-05-21T19:41:21.550Z,90.35
2023-05-21T19:43:49.918Z,119.10
2023-05-21T19:46:20.338Z,122.50
2023-05-21T19:48:51.632Z,103.60
2023-05-21T19:51:19.983Z,100.57
2023-05-21T19:53:48.256Z,84.18
2023-05-21T19:56:17.182Z,68.70
2023-05-21T19:58:47.212Z,106.80
2023-05-21T20:01:16.375Z,145.40
2023-05-21T20:03:45.489Z,190.93
2023-05-21T20:06:19.016Z,207.52
2023-05-21T20:08:47.679Z,207.43
2023-05-21T20:11:16.174Z,184.75
2023-05-21T20:13:48.541Z,149.98
2023-05-21T20:16:18.356Z,128.40
2023-05-21T20:18:47.342Z,110.63
2023-05-21T20:21:18.412Z,80.38
2023-05-21T20:23:47.052Z,136.98
2023-05-21T20:26:15.968Z,190.13
2023-05-21T20:28:44.425Z,209.63
2023-05-21T20:31:12.982Z,242.25
2023-05-21T20:33:42.004Z,240.77
2023-05-21T20:36:11.058Z,261.52
2023-05-21T20:38:42.110Z,209.77
2023-05-21T20:41:10.917Z,182.93
2023-05-21T20:43:39.343Z,217.55
2023-05-21T20:46:07.900Z,264.42
2023-05-21T20:48:37.853Z,247.43
2023-05-21T20:51:06.896Z,263.25
2023-05-21T20:53:35.138Z,262.95
2023-05-21T20:56:08.308Z,281.63
2023-05-21T20:58:36.795Z,166.63
2023-05-21T21:01:05.053Z,150.95
2023-05-21T21:03:34.918Z,150.60
2023-05-21T21:06:04.422Z,141.13
2023-05-21T21:08:34.626Z,133.30
2023-05-21T21:11:04.272Z,129.77
2023-05-21T21:13:32.728Z,129.75
2023-05-21T21:16:00.931Z,126.45
2023-05-21T21:18:29.190Z,127.40
2023-05-21T21:20:57.604Z,124.82
2023-05-21T21:23:26.144Z,129.55
2023-05-21T21:25:54.365Z,127.00
2023-05-21T21:28:24.205Z,106.20
2023-05-21T21:30:52.487Z,96.68
2023-05-21T21:33:20.842Z,98.70
2023-05-21T21:35:49.132Z,94.03
2023-05-21T21:38:17.337Z,83.22
2023-05-21T21:40:45.831Z,79.80
2023-05-21T21:43:14.111Z,71.13
2023-05-21T21:45:43.805Z,71.80
2023-05-21T21:48:12.312Z,69.78
2023-05-21T21:50:40.798Z,60.17
2023-05-21T21:53:09.823Z,62.72
2023-05-21T21:55:38.272Z,55.30
2023-05-21T21:58:06.799Z,70.82
2023-05-21T22:00:35.096Z,66.28
2023-05-21T22:03:04.955Z,63.92
2023-05-21T22:05:33.986Z,63.70
2023-05-21T22:08:03.112Z,57.83
2023-05-21T22:10:33.466Z,52.40
2023-05-21T22:13:02.795Z,58.60
2023-05-21T22:15:32.255Z,58.42
2023-05-21T22:18:02.474Z,55.85
2023-05-21T22:20:33.180Z,53.72
2023-05-21T22:23:01.636Z,54.53
2023-05-21T22:25:29.842Z,46.63
2023-05-21T22:27:58.196Z,44.05
2023-05-21T22:30:26.464Z,45.50
2023-05-21T22:32:54.709Z,38.40
2023-05-21T22:35:23.062Z,36.05
2023-05-21T22:37:52.709Z,33.33
2023-05-21T22:40:20.958Z,33.10
2023-05-21T22:42:49.352Z,29.13
2023-05-21T22:45:18.819Z,29.15
2023-05-21T22:47:48.192Z,27.38
2023-05-21T22:50:16.690Z,25.73
2023-05-21T22:52:45.114Z,25.10
2023-05-21T22:55:15.832Z,23.65
2023-05-21T22:57:44.546Z,21.33
2023-05-21T23:00:13.739Z,20.25
2023-05-21T23:02:42.105Z,18.10
2023-05-21T23:05:10.834Z,19.90
2023-05-21T23:07:39.575Z,18.48
2023-05-21T23:10:08.644Z,16.80
2023-05-21T23:12:38.737Z,17.55
2023-05-21T23:15:07.719Z,16.98
2023-05-21T23:17:36.219Z,15.77
2023-05-21T23:20:05.008Z,16.63
2023-05-21T23:22:33.372Z,16.27
2023-05-21T23:25:01.625Z,15.95
2023-05-21T23:27:30.083Z,15.02
2023-05-21T23:29:59.756Z,15.55
2023-05-21T23:32:28.190Z,15.82
2023-05-21T23:34:56.893Z,16.25
2023-05-21T23:37:25.132Z,15.82
2023-05-21T23:39:53.387Z,15.85
2023-05-21T23:42:21.813Z,15.20
2023-05-21T23:44:50.115Z,15.18
2023-05-21T23:47:19.720Z,15.63
2023-05-21T23:49:47.988Z,15.80
2023-05-21T23:52:17.317Z,69.05
2023-05-21T23:54:46.361Z,104.25
2023-05-21T23:57:14.757Z,124.28
2023-05-21T23:59:42.983Z,110.82
